• Join FlightAware (Why Join?)
  • Login
  • US Flag 
 
12:58AM EST


 

Airport Tracker/Info


-or-


 

Live Flight TrackerFlight Track Log ✈ MMN26 ✈ 19-Jun-2013 ✈ KLNS - KSAV

Flight Track Log - Related Links

Times and Time Zones

All times are in EDT time to prevent confusion due to time zone crossing. See the MMN26 flight status page for this flight to view local times or setup timezone preferences in your user account.

Time Position Orientation Groundspeed Altitude Reporting Facility
EDT Latitude Longitude Course Direction KTS MPH feet Rate Location/Type
04:03PM 40.0922 -76.2575 218° Southwest 190 219 3,300  Level New York Center
04:04PM 40.0558 -76.3225 234° Southwest 190 219 6,000 2,520 Climbing New York Center
04:05PM 40.0158 -76.3761 226° Southwest 211 243 8,400 2,220 Climbing New York Center
04:06PM 39.9653 -76.4289 219° Southwest 216 249 10,500 2,100 Climbing New York Center
04:07PM 39.9208 -76.4850 224° Southwest 243 280 12,700 2,040 Climbing New York Center
04:08PM 39.6855 -76.6903 227° Southwest  Level FlightAware Approximate
04:08PM 39.8633 -76.5533 222° Southwest 276 318 14,700  Level New York Center
04:09PM 39.6269 -76.7732 218° Southwest  Level FlightAware Approximate
04:09PM 39.7947 -76.6342 222° Southwest 299 344 16,800  Level New York Center
04:10PM 39.7353 -76.6994 220° Southwest 309 356 18,600 1,740 Climbing New York Center
04:11PM 39.6708 -76.7775 223° Southwest 315 362 20,400 1,980 Climbing New York Center
04:12PM 39.6031 -76.8492 219° Southwest 320 368 22,300 1,980 Climbing Washington Center
04:13PM 39.5375 -76.9317 224° Southwest 335 386 24,100 1,860 Climbing Washington Center
04:14PM 39.4842 -77.0247 233° Southwest 330 380 26,000 1,620 Climbing Washington Center
04:16PM 39.3819 -77.2053 234° Southwest 325 374 29,100 1,380 Climbing Washington Center
04:17PM 39.3306 -77.2981 234° Southwest 320 368 30,300 1,080 Climbing Washington Center
04:18PM 39.2792 -77.3933 235° Southwest 320 368 31,300 840 Climbing Washington Center
04:19PM 39.2278 -77.4911 236° Southwest 329 379 32,100 780 Climbing Washington Center
04:20PM 39.1761 -77.5889 236° Southwest 329 379 32,900 720 Climbing Washington Center
04:21PM 39.1264 -77.6894 238° Southwest 329 379 33,600 720 Climbing Washington Center
04:22PM 39.0769 -77.7789 235° Southwest 334 384 34,400 960 Climbing Washington Center
04:23PM 39.0064 -77.8728 226° Southwest 334 384 35,500 1,080 Climbing Washington Center
04:24PM 38.9444 -77.9589 227° Southwest 334 384 36,600 840 Climbing Washington Center
04:25PM 38.8825 -78.0344 224° Southwest 322 371 37,300 540 Climbing Washington Center
04:26PM 38.8186 -78.0961 217° Southwest 322 371 37,800 420 Climbing Washington Center
04:27PM 38.7403 -78.1547 210° Southwest 322 371 38,200 420 Climbing Washington Center
04:28PM 38.6839 -78.2458 232° Southwest 322 371 38,700 480 Climbing Washington Center
04:29PM 38.6339 -78.3369 235° Southwest 317 365 39,200 300 Climbing Washington Center
04:30PM 38.5575 -78.3953 211° Southwest 317 365 39,400 240 Climbing Washington Center
04:31PM 38.4750 -78.4506 208° Southwest 326 375 39,700 300 Climbing Washington Center
04:32PM 38.3925 -78.5031 207° Southwest 337 388 40,000 120 Climbing Washington Center
04:33PM 38.3056 -78.5606 207° Southwest 342 394 40,000  Level Washington Center
04:34PM 38.2250 -78.6128 207° Southwest 342 394 40,000  Level Washington Center
04:35PM 38.1381 -78.6700 207° Southwest 342 394 40,000  Level Washington Center
04:36PM 38.0406 -78.7319 207° Southwest 354 407 40,000  Level Washington Center
04:37PM 37.9536 -78.7861 206° Southwest 359 413 40,000  Level Washington Center
04:38PM 37.8622 -78.8456 207° Southwest 359 413 40,000  Level Washington Center
04:39PM 37.7708 -78.9019 206° Southwest 359 413 40,000  Level Washington Center
04:40PM 37.6839 -78.9586 207° Southwest 359 413 40,000  Level Washington Center
04:41PM 37.6011 -79.0100 206° Southwest 364 419 40,000  Level Washington Center
04:42PM 37.5097 -79.0661 206° Southwest 364 419 40,000  Level Washington Center
04:43PM 37.4183 -79.1247 207° Southwest 370 426 40,000  Level Washington Center
04:44PM 37.3269 -79.1806 206° Southwest 370 426 40,000  Level Washington Center
04:45PM 37.2356 -79.2389 207° Southwest 370 426 40,000  Level Washington Center
04:46PM 37.1356 -79.3044 208° Southwest 370 426 40,000  Level Washington Center
04:47PM 37.0397 -79.3597 205° Southwest 370 426 40,000  Level Washington Center
04:48PM 36.9503 -79.4175 207° Southwest 370 426 40,000  Level Washington Center
04:49PM 36.8567 -79.4753 206° Southwest 370 426 40,000  Level Washington Center
04:50PM 36.7736 -79.5281 207° Southwest 370 426 40,000  Level Washington Center
04:51PM 36.6842 -79.5831 206° Southwest 370 426 40,000  Level Washington Center
04:52PM 36.5903 -79.6431 207° Southwest 375 432 40,000  Level Washington Center
04:52PM 36.5169 -79.6836 204° Southwest 388 447 40,000  Level Atlanta Center
04:53PM 36.4231 -79.7403 206° Southwest 393 452 40,000  Level Atlanta Center
04:54PM 36.3333 -79.7967 207° Southwest 388 447 40,000  Level Atlanta Center
04:55PM 36.2475 -79.8475 206° Southwest 380 437 40,000  Level Atlanta Center
04:56PM 36.1556 -79.9036 206° Southwest 380 437 40,000  Level Atlanta Center
04:57PM 36.0594 -79.9650 207° Southwest 380 437 40,000  Level Atlanta Center
04:58PM 35.9547 -80.0164 202° Southwest 380 437 40,000  Level Atlanta Center
04:59PM 35.8583 -80.0672 203° Southwest 380 437 40,000  Level Atlanta Center
05:00PM 35.7578 -80.1158 201° Southwest 380 437 40,000  Level Atlanta Center
05:01PM 35.6694 -80.1608 202° Southwest 392 451 40,000  Level Atlanta Center
05:02PM 35.5708 -80.2117 203° Southwest 387 445 40,000  Level Atlanta Center
05:03PM 35.4575 -80.2550 197° South 387 445 40,000  Level Atlanta Center
05:04PM 35.3542 -80.2878 195° South 387 445 40,000  Level Atlanta Center
05:05PM 35.2467 -80.3181 193° South 393 452 40,000  Level Atlanta Center
05:06PM 35.1411 -80.3483 193° South 393 452 40,000  Level Atlanta Center
05:07PM 35.0336 -80.3808 194° South 388 447 40,000  Level Atlanta Center
05:10PM 34.8119 -80.4475 194° South 420 483 40,000  Level Jacksonville Center
05:11PM 34.7125 -80.4781 194° South 399 459 40,000  Level Jacksonville Center
05:12PM 34.6067 -80.5064 192° South 393 452 40,000  Level Jacksonville Center
05:13PM 34.5008 -80.5394 194° South 393 452 40,000  Level Jacksonville Center
05:14PM 34.3931 -80.5700 193° South 393 452 40,000  Level Jacksonville Center
05:15PM 34.2850 -80.6031 194° South 393 452 40,000 -300 Level Jacksonville Center
05:16PM 34.1750 -80.6336 193° South 393 452 39,400 -900 Descending Jacksonville Center
05:17PM 34.0775 -80.6611 193° South 399 459 38,300 -1,020 Descending Jacksonville Center
05:18PM 33.9694 -80.6914 193° South 404 465 37,400 -1,020 Descending Jacksonville Center
05:19PM 33.8617 -80.7317 197° South 404 465 36,300 -720 Descending Jacksonville Center
05:20PM 33.7603 -80.7817 202° Southwest 404 465 36,000 -360 Descending Jacksonville Center
05:21PM 33.6611 -80.8314 203° Southwest 398 458 35,600 -780 Descending Jacksonville Center
05:22PM 33.5575 -80.8836 203° Southwest 398 458 34,500 -840 Descending Jacksonville Center
05:23PM 33.4539 -80.9383 204° Southwest 403 464 34,000 -300 Descending Jacksonville Center
05:24PM 33.3503 -80.9828 200° South 403 464 33,900 -840 Descending Jacksonville Center
05:25PM 33.2358 -81.0053 189° South 403 464 32,400 -2,040 Descending Jacksonville Center
05:26PM 33.1192 -81.0225 187° South 419 482 29,900 -3,000 Descending Jacksonville Center
05:27PM 33.0067 -81.0372 186° South 419 482 26,400 -3,660 Descending Jacksonville Center
05:28PM 32.9025 -81.0517 187° South 406 467 22,600 -3,900 Descending Jacksonville Center
05:29PM 32.7942 -81.0639 185° South 400 460 18,600 -4,020 Descending Jacksonville Center
05:30PM 32.6922 -81.0758 186° South 388 447 14,600 -3,660 Descending Jacksonville Center
05:31PM 32.6047 -81.1047 196° South 307 353 11,300 -3,360 Descending Jacksonville Center
05:32PM 32.5408 -81.1478 210° Southwest 275 316 7,900 -3,000 Descending Jacksonville Center
05:33PM 32.4806 -81.1711 198° South 259 298 5,400 -2,340 Descending Jacksonville Center
05:34PM 32.4203 -81.1869 193° South 234 269 3,300 -1,440 Descending Jacksonville Center
05:35PM 32.3536 -81.2006 190° South 222 255 2,600 -600 Descending Jacksonville Center
05:36PM 32.2953 -81.2042 183° South 217 250 2,200 -360 Descending Jacksonville Center
05:37PM 32.2389 -81.2053 181° South 217 250 1,900 -300 Descending Jacksonville Center
05:38PM 32.1392 -81.1985 192° South  Level FlightAware Approximate
05:45PM 32.1276 -81.2021 180° South  Level Estimated
05:46PM 32.1276 -81.2021 180° South  Level Estimated
05:47PM 32.1276 -81.2021 180° South  Level Estimated
05:48PM 32.1276 -81.2021 180° South  Level Estimated